createdAt,value
2023-04-14T00:01:24.258Z,41.50
2023-04-14T00:03:53.010Z,41.97
2023-04-14T00:06:21.074Z,40.60
2023-04-14T00:08:49.006Z,40.13
2023-04-14T00:11:16.877Z,39.73
2023-04-14T00:13:46.113Z,40.57
2023-04-14T00:16:14.105Z,39.83
2023-04-14T00:18:42.349Z,39.93
2023-04-14T00:21:10.280Z,42.83
2023-04-14T00:23:38.152Z,41.13
2023-04-14T00:26:06.462Z,41.33
2023-04-14T00:28:34.384Z,40.93
2023-04-14T00:31:03.683Z,41.33
2023-04-14T00:33:31.548Z,40.30
2023-04-14T00:35:59.525Z,40.93
2023-04-14T00:38:27.520Z,41.10
2023-04-14T00:40:55.389Z,41.67
2023-04-14T00:43:23.303Z,40.80
2023-04-14T00:45:52.519Z,41.72
2023-04-14T00:48:21.976Z,41.13
2023-04-14T00:50:49.975Z,43.40
2023-04-14T00:53:17.891Z,41.60
2023-04-14T00:55:45.931Z,40.13
2023-04-14T00:58:15.770Z,39.93
2023-04-14T01:00:43.994Z,40.77
2023-04-14T01:03:12.359Z,42.60
2023-04-14T01:05:41.801Z,40.23
2023-04-14T01:08:09.811Z,40.33
2023-04-14T01:10:42.383Z,40.90
2023-04-14T01:13:33.506Z,41.00
2023-04-14T01:16:05.259Z,41.17
2023-04-14T01:18:42.123Z,40.33
2023-04-14T01:21:17.152Z,40.57
2023-04-14T01:24:04.043Z,42.20
2023-04-14T01:26:32.974Z,40.87
2023-04-14T01:29:44.958Z,39.33
2023-04-14T01:32:19.463Z,42.90
2023-04-14T01:34:51.978Z,38.53
2023-04-14T01:37:30.099Z,40.90
2023-04-14T01:40:02.950Z,40.13
2023-04-14T01:42:35.023Z,40.87
2023-04-14T01:45:07.647Z,40.67
2023-04-14T01:47:38.226Z,41.40
2023-04-14T01:50:07.987Z,42.97
2023-04-14T01:52:37.935Z,41.13
2023-04-14T01:55:09.614Z,43.42
2023-04-14T01:57:39.119Z,42.60
2023-04-14T02:00:10.264Z,42.60
2023-04-14T02:02:41.475Z,40.10
2023-04-14T02:05:10.692Z,40.33
2023-04-14T02:07:39.987Z,43.00
2023-04-14T02:10:11.344Z,41.83
2023-04-14T02:12:42.223Z,39.17
2023-04-14T02:15:15.516Z,39.93
2023-04-14T02:17:47.653Z,42.20
2023-04-14T02:20:16.904Z,43.65
2023-04-14T02:22:44.803Z,42.03
2023-04-14T02:25:12.803Z,40.80
2023-04-14T02:27:46.218Z,42.22
2023-04-14T02:30:19.331Z,41.85
2023-04-14T02:33:06.169Z,41.47
2023-04-14T02:35:40.351Z,40.63
2023-04-14T02:38:17.003Z,41.20
2023-04-14T02:40:46.021Z,40.70
2023-04-14T02:43:18.743Z,42.33
2023-04-14T02:45:50.770Z,40.50
2023-04-14T02:48:24.266Z,41.97
2023-04-14T02:50:55.572Z,41.03
2023-04-14T02:53:26.397Z,40.33
2023-04-14T02:55:54.375Z,40.07
2023-04-14T02:58:22.405Z,41.70
2023-04-14T03:00:52.114Z,40.77
2023-04-14T03:03:21.712Z,41.20
2023-04-14T03:05:49.727Z,40.67
2023-04-14T03:08:17.963Z,41.80
2023-04-14T03:10:47.245Z,41.13
2023-04-14T03:13:16.739Z,41.40
2023-04-14T03:15:46.726Z,40.47
2023-04-14T03:18:16.431Z,41.63
2023-04-14T03:20:47.177Z,41.63
2023-04-14T03:23:18.957Z,42.35
2023-04-14T03:25:48.839Z,40.83
2023-04-14T03:28:20.481Z,41.40
2023-04-14T03:30:52.456Z,41.40
2023-04-14T03:33:24.388Z,42.87
2023-04-14T03:35:54.940Z,42.55
2023-04-14T03:38:26.240Z,41.07
2023-04-14T03:40:55.199Z,41.40
2023-04-14T03:43:24.953Z,40.80
2023-04-14T03:45:52.853Z,42.05
2023-04-14T03:48:22.328Z,41.43
2023-04-14T03:50:54.711Z,40.67
2023-04-14T03:53:22.978Z,42.17
2023-04-14T03:55:53.907Z,41.07
2023-04-14T03:58:23.109Z,41.77
2023-04-14T04:00:53.107Z,42.05
2023-04-14T04:03:22.852Z,40.23
2023-04-14T04:05:51.207Z,42.95
2023-04-14T04:08:21.260Z,42.83
2023-04-14T04:10:50.629Z,41.60
2023-04-14T04:13:21.667Z,42.40
2023-04-14T04:15:52.060Z,42.83
2023-04-14T04:18:22.625Z,42.07
2023-04-14T04:20:51.368Z,40.93
2023-04-14T04:23:23.646Z,41.40
2023-04-14T04:25:52.903Z,40.90
2023-04-14T04:28:21.163Z,40.37
2023-04-14T04:30:51.477Z,40.20
2023-04-14T04:33:20.976Z,41.87
2023-04-14T04:35:49.382Z,41.47
2023-04-14T04:38:17.300Z,40.03
2023-04-14T04:40:46.703Z,40.33
2023-04-14T04:43:14.575Z,39.90
2023-04-14T04:46:09.587Z,42.80
2023-04-14T04:48:37.510Z,41.77
2023-04-14T04:51:05.589Z,41.53
2023-04-14T04:53:33.564Z,40.33
2023-04-14T04:56:02.894Z,41.33
2023-04-14T04:58:30.814Z,42.70
2023-04-14T05:00:58.785Z,40.70
2023-04-14T05:03:27.181Z,39.97
2023-04-14T05:05:55.173Z,40.20
2023-04-14T05:08:23.333Z,40.77
2023-04-14T05:10:51.337Z,40.43
2023-04-14T05:13:22.482Z,40.27
2023-04-14T05:15:50.379Z,39.93
2023-04-14T05:18:18.317Z,42.87
2023-04-14T05:20:46.295Z,41.92
2023-04-14T05:23:14.285Z,41.17
2023-04-14T05:25:42.198Z,40.63
2023-04-14T05:28:10.051Z,43.15
2023-04-14T05:30:39.413Z,43.90
2023-04-14T05:33:07.373Z,42.70
2023-04-14T05:35:35.279Z,42.25
2023-04-14T05:38:03.169Z,41.80
2023-04-14T05:40:33.339Z,42.70
2023-04-14T05:43:01.496Z,41.93
2023-04-14T05:45:29.471Z,42.43
2023-04-14T05:47:58.975Z,41.17
2023-04-14T05:50:27.074Z,41.07
2023-04-14T05:52:55.442Z,44.37
2023-04-14T05:55:23.624Z,41.80
2023-04-14T05:57:52.450Z,44.17
2023-04-14T06:00:23.232Z,43.13
2023-04-14T06:02:51.558Z,40.77
2023-04-14T06:05:21.273Z,45.08
2023-04-14T06:07:49.210Z,43.70
2023-04-14T06:10:17.104Z,42.40
2023-04-14T06:12:45.698Z,45.17
2023-04-14T06:15:13.894Z,42.43
2023-04-14T06:17:42.156Z,41.97
2023-04-14T06:20:11.543Z,40.77
2023-04-14T06:22:40.966Z,42.73
2023-04-14T06:25:10.844Z,41.80
2023-04-14T06:27:38.760Z,41.87
2023-04-14T06:30:08.101Z,42.30
2023-04-14T06:32:36.050Z,42.20
2023-04-14T06:35:05.050Z,42.10
2023-04-14T06:37:33.112Z,41.93
2023-04-14T06:40:02.429Z,40.77
2023-04-14T06:42:30.378Z,42.13
2023-04-14T06:44:58.190Z,42.07
2023-04-14T06:47:26.125Z,42.33
2023-04-14T06:49:54.033Z,42.00
2023-04-14T06:52:21.936Z,42.00
2023-04-14T06:54:49.985Z,43.10
2023-04-14T06:57:19.262Z,43.20
2023-04-14T06:59:47.764Z,42.90
2023-04-14T07:02:15.732Z,41.73
2023-04-14T07:04:43.631Z,44.90
2023-04-14T07:07:11.789Z,42.13
2023-04-14T07:09:39.824Z,42.70
2023-04-14T07:12:07.765Z,46.22
2023-04-14T07:14:37.871Z,42.60
2023-04-14T07:17:05.835Z,42.17
2023-04-14T07:19:33.776Z,42.20
2023-04-14T07:22:01.875Z,45.40
2023-04-14T07:24:29.743Z,45.07
2023-04-14T07:26:57.607Z,42.43
2023-04-14T07:29:27.193Z,41.90
2023-04-14T07:31:56.484Z,42.53
2023-04-14T07:34:24.340Z,42.73
2023-04-14T07:36:52.262Z,43.83
2023-04-14T07:39:23.665Z,42.03
2023-04-14T07:41:51.777Z,42.60
2023-04-14T07:44:19.784Z,43.40
2023-04-14T07:46:47.711Z,43.27
2023-04-14T07:49:17.166Z,41.60
2023-04-14T07:51:45.115Z,42.67
2023-04-14T07:54:13.008Z,42.83
2023-04-14T07:56:40.960Z,44.80
2023-04-14T07:59:08.861Z,43.83
2023-04-14T08:01:37.627Z,42.77
2023-04-14T08:04:05.992Z,43.60
2023-04-14T08:06:35.495Z,46.27
2023-04-14T08:09:03.659Z,43.17
2023-04-14T08:11:31.650Z,43.20
2023-04-14T08:13:59.582Z,43.50
2023-04-14T08:16:27.773Z,44.80
2023-04-14T08:18:57.316Z,43.17
2023-04-14T08:21:26.959Z,43.43
2023-04-14T08:23:57.173Z,43.87
2023-04-14T08:26:27.240Z,43.33
2023-04-14T08:28:55.708Z,46.25
2023-04-14T08:31:24.933Z,44.70
2023-04-14T08:33:53.221Z,43.87
2023-04-14T08:36:21.577Z,43.93
2023-04-14T08:38:49.614Z,44.60
2023-04-14T08:41:21.000Z,44.63
2023-04-14T08:43:48.899Z,44.23
2023-04-14T08:46:17.436Z,44.27
2023-04-14T08:48:47.952Z,44.23
2023-04-14T08:51:23.232Z,43.73
2023-04-14T08:53:54.123Z,44.93
2023-04-14T08:56:25.457Z,44.37
2023-04-14T08:58:53.494Z,44.97
2023-04-14T09:01:21.695Z,44.40
2023-04-14T09:03:50.618Z,47.70
2023-04-14T09:06:19.475Z,47.90
2023-04-14T09:08:47.655Z,46.60
2023-04-14T09:11:17.368Z,45.73
2023-04-14T09:13:47.481Z,45.80
2023-04-14T09:16:15.598Z,45.47
2023-04-14T09:18:43.807Z,46.60
2023-04-14T09:21:50.435Z,46.10
2023-04-14T09:24:04.550Z,46.60
2023-04-14T09:26:32.451Z,45.50
2023-04-14T09:29:01.991Z,45.27
2023-04-14T09:31:30.822Z,47.40
2023-04-14T09:33:58.795Z,48.20
2023-04-14T09:36:29.007Z,45.93
2023-04-14T09:38:57.226Z,47.20
2023-04-14T09:41:26.028Z,46.30
2023-04-14T09:43:54.118Z,47.92
2023-04-14T09:46:23.419Z,48.50
2023-04-14T09:48:53.051Z,47.22
2023-04-14T09:51:23.960Z,49.30
2023-04-14T09:53:54.049Z,49.08
2023-04-14T09:56:26.739Z,48.47
2023-04-14T09:58:59.731Z,49.10
2023-04-14T10:01:33.731Z,47.07
2023-04-14T10:04:03.253Z,49.45
2023-04-14T10:06:32.172Z,47.37
2023-04-14T10:09:00.487Z,49.67
2023-04-14T10:11:30.445Z,47.20
2023-04-14T10:14:00.069Z,46.53
2023-04-14T10:16:28.460Z,48.10
2023-04-14T10:18:58.690Z,49.47
2023-04-14T10:21:27.681Z,48.67
2023-04-14T10:23:57.487Z,48.67
2023-04-14T10:26:25.709Z,50.10
2023-04-14T10:28:57.112Z,47.87
2023-04-14T10:31:29.172Z,47.73
2023-04-14T10:33:58.877Z,46.13
2023-04-14T10:36:28.005Z,47.73
2023-04-14T10:39:02.277Z,49.37
2023-04-14T10:41:45.369Z,49.17
2023-04-14T10:44:24.135Z,51.13
2023-04-14T10:46:54.022Z,47.77
2023-04-14T10:49:27.304Z,49.25
2023-04-14T10:51:55.165Z,50.83
2023-04-14T10:54:23.031Z,50.35
2023-04-14T10:57:11.052Z,50.72
2023-04-14T10:59:42.314Z,51.30
2023-04-14T11:02:28.146Z,50.42
2023-04-14T11:05:06.475Z,52.10
2023-04-14T11:07:40.090Z,50.20
2023-04-14T11:10:36.699Z,52.17
2023-04-14T11:13:06.881Z,50.80
2023-04-14T11:15:49.001Z,52.90
2023-04-14T11:18:18.773Z,51.95
2023-04-14T11:20:48.073Z,52.13
2023-04-14T11:23:16.958Z,50.90
2023-04-14T11:25:45.657Z,51.70
2023-04-14T11:28:13.747Z,53.17
2023-04-14T11:30:43.221Z,60.08
2023-04-14T11:33:11.221Z,56.80
2023-04-14T11:35:39.194Z,52.05
2023-04-14T11:38:11.840Z,51.87
2023-04-14T11:40:39.794Z,54.80
2023-04-14T11:43:07.992Z,50.60
2023-04-14T11:45:36.321Z,55.03
2023-04-14T11:48:06.944Z,51.40
2023-04-14T11:50:38.575Z,51.90
2023-04-14T11:53:10.245Z,52.70
2023-04-14T11:55:38.443Z,51.60
2023-04-14T11:58:06.610Z,53.60
2023-04-14T12:00:34.811Z,50.70
2023-04-14T12:03:04.031Z,50.80
2023-04-14T12:05:33.816Z,51.77
2023-04-14T12:08:03.667Z,52.80
2023-04-14T12:10:34.468Z,53.72
2023-04-14T12:13:03.317Z,52.47
2023-04-14T12:15:32.625Z,51.60
2023-04-14T12:18:01.052Z,53.60
2023-04-14T12:20:30.365Z,51.58
2023-04-14T12:23:02.944Z,55.17
2023-04-14T12:25:34.113Z,58.30
2023-04-14T12:28:06.019Z,52.80
2023-04-14T12:30:34.143Z,54.83
2023-04-14T12:33:09.684Z,58.00
2023-04-14T12:35:37.525Z,48.65
2023-04-14T12:38:10.604Z,49.50
2023-04-14T12:40:41.097Z,50.40
2023-04-14T12:43:08.982Z,49.75
2023-04-14T12:45:43.976Z,49.90
2023-04-14T12:48:12.949Z,50.20
2023-04-14T12:50:41.362Z,50.63
2023-04-14T12:53:25.341Z,49.63
2023-04-14T12:56:10.457Z,51.00
2023-04-14T12:58:39.761Z,50.85
2023-04-14T13:01:08.274Z,49.95
2023-04-14T13:03:44.846Z,50.90
2023-04-14T13:06:16.191Z,51.33
2023-04-14T13:08:45.454Z,51.30
2023-04-14T13:11:15.272Z,50.60
2023-04-14T13:13:44.333Z,50.00
2023-04-14T13:16:16.206Z,49.60
2023-04-14T13:18:45.297Z,50.20
2023-04-14T13:21:13.395Z,50.33
2023-04-14T13:23:41.702Z,49.80
2023-04-14T13:26:09.832Z,49.50
2023-04-14T13:28:39.329Z,50.05
2023-04-14T13:31:07.404Z,50.20
2023-04-14T13:33:35.535Z,50.10
2023-04-14T13:36:03.888Z,50.50
2023-04-14T13:38:31.954Z,50.20
2023-04-14T13:41:00.280Z,49.70
2023-04-14T13:43:28.198Z,50.30
2023-04-14T13:45:59.094Z,50.63
2023-04-14T13:48:27.112Z,50.00
2023-04-14T13:50:55.752Z,50.20
2023-04-14T13:53:23.870Z,49.80
2023-04-14T13:55:52.002Z,50.10
2023-04-14T13:58:19.929Z,50.10
2023-04-14T14:00:47.831Z,50.30
2023-04-14T14:03:17.456Z,50.50
2023-04-14T14:05:45.454Z,49.30
2023-04-14T14:08:15.803Z,49.97
2023-04-14T14:10:43.943Z,50.40
2023-04-14T14:13:11.859Z,50.10
2023-04-14T14:15:39.798Z,49.97
2023-04-14T14:18:07.718Z,50.23
2023-04-14T14:20:36.985Z,49.20
2023-04-14T14:23:05.072Z,50.10
2023-04-14T14:25:32.967Z,49.40
2023-04-14T14:28:00.802Z,50.22
2023-04-14T14:30:28.761Z,50.10
2023-04-14T14:32:56.678Z,50.47
2023-04-14T14:35:24.560Z,50.10
2023-04-14T14:37:53.876Z,50.40
2023-04-14T14:40:21.969Z,49.70
2023-04-14T14:42:49.820Z,51.40
2023-04-14T14:45:19.001Z,49.05
2023-04-14T14:47:58.458Z,50.10
2023-04-14T14:50:26.297Z,50.25
2023-04-14T14:52:56.837Z,51.13
2023-04-14T14:55:24.842Z,47.07
2023-04-14T14:57:52.738Z,48.90
2023-04-14T15:00:21.147Z,48.70
2023-04-14T15:02:49.119Z,52.00
2023-04-14T15:05:17.309Z,50.92
2023-04-14T15:07:45.215Z,49.97
2023-04-14T15:10:15.816Z,49.50
2023-04-14T15:12:43.704Z,53.05
2023-04-14T15:15:12.850Z,50.15
2023-04-14T15:17:40.824Z,50.00
2023-04-14T15:20:09.758Z,50.20
2023-04-14T15:22:37.660Z,50.20
2023-04-14T15:25:06.900Z,49.88
2023-04-14T15:27:36.365Z,48.75
2023-04-14T15:30:04.464Z,50.20
2023-04-14T15:32:32.378Z,51.10
2023-04-14T15:35:00.277Z,49.70
2023-04-14T15:37:28.183Z,49.65
2023-04-14T15:39:56.721Z,49.90
2023-04-14T15:42:24.659Z,50.90
2023-04-14T15:44:54.003Z,49.70
2023-04-14T15:47:21.954Z,49.40
2023-04-14T15:49:52.439Z,49.90
2023-04-14T15:52:35.310Z,52.70
2023-04-14T15:55:03.207Z,49.13
2023-04-14T15:57:31.076Z,49.70
2023-04-14T16:00:01.949Z,50.50
2023-04-14T16:02:29.939Z,52.20
2023-04-14T16:04:58.202Z,48.90
2023-04-14T16:07:26.119Z,50.42
2023-04-14T16:09:54.015Z,50.00
2023-04-14T16:12:22.128Z,52.25
2023-04-14T16:14:51.993Z,49.90
2023-04-14T16:17:21.859Z,49.60
2023-04-14T16:19:49.729Z,50.42
2023-04-14T16:22:17.578Z,50.90
2023-04-14T16:24:45.415Z,50.30
2023-04-14T16:27:13.232Z,50.00
2023-04-14T16:29:41.807Z,49.28
2023-04-14T16:32:09.678Z,50.40
2023-04-14T16:34:39.043Z,50.17
2023-04-14T16:37:06.869Z,50.30
2023-04-14T16:39:34.801Z,49.28
2023-04-14T16:42:03.112Z,50.58
2023-04-14T16:44:30.996Z,49.80
2023-04-14T16:46:58.841Z,50.30
2023-04-14T16:49:27.088Z,49.90
2023-04-14T16:51:57.450Z,49.90
2023-04-14T16:54:25.349Z,48.63
2023-04-14T16:56:53.235Z,49.33
2023-04-14T16:59:21.086Z,49.50
2023-04-14T17:01:49.064Z,49.03
2023-04-14T17:04:17.169Z,48.33
2023-04-14T17:06:46.436Z,49.67
2023-04-14T17:09:17.387Z,49.25
2023-04-14T17:11:46.043Z,48.30
2023-04-14T17:14:13.884Z,47.13
2023-04-14T17:16:42.173Z,47.20
2023-04-14T17:19:10.581Z,47.78
2023-04-14T17:21:38.990Z,48.83
2023-04-14T17:24:07.278Z,49.10
2023-04-14T17:26:36.567Z,47.80
2023-04-14T17:29:04.436Z,46.17
2023-04-14T17:31:32.513Z,47.58
2023-04-14T17:34:01.064Z,47.13
2023-04-14T17:36:29.296Z,48.20
2023-04-14T17:38:57.531Z,47.50
2023-04-14T17:41:25.679Z,46.40
2023-04-14T17:43:55.003Z,47.20
2023-04-14T17:46:33.227Z,47.53
2023-04-14T17:49:02.273Z,46.37
2023-04-14T17:51:31.148Z,46.57
2023-04-14T17:53:59.633Z,48.08
2023-04-14T17:56:27.692Z,45.97
2023-04-14T17:58:57.516Z,46.07
2023-04-14T18:01:26.105Z,47.38
2023-04-14T18:03:54.083Z,48.17
2023-04-14T18:06:22.793Z,45.67
2023-04-14T18:08:51.435Z,47.80
2023-04-14T18:11:20.441Z,46.80
2023-04-14T18:13:48.286Z,45.53
2023-04-14T18:16:19.417Z,44.77
2023-04-14T18:18:47.612Z,44.00
2023-04-14T18:21:15.560Z,46.00
2023-04-14T18:23:43.822Z,45.58
2023-04-14T18:28:42.453Z,44.90
2023-04-14T18:31:12.456Z,44.93
2023-04-14T18:33:43.235Z,46.13
2023-04-14T18:36:11.451Z,44.53
2023-04-14T18:38:39.367Z,44.00
2023-04-14T18:41:07.305Z,44.63
2023-04-14T18:43:35.364Z,44.53
2023-04-14T18:46:03.661Z,43.73
2023-04-14T18:48:31.726Z,44.40
2023-04-14T18:51:04.221Z,44.60
2023-04-14T18:53:32.500Z,43.57
2023-04-14T18:56:00.513Z,44.23
2023-04-14T18:58:29.325Z,43.53
2023-04-14T19:00:57.511Z,43.17
2023-04-14T19:03:26.956Z,43.70
2023-04-14T19:05:55.699Z,43.23
2023-04-14T19:08:25.128Z,45.27
2023-04-14T19:10:53.042Z,43.77
2023-04-14T19:13:20.915Z,44.00
2023-04-14T19:15:48.925Z,43.10
2023-04-14T19:18:17.190Z,43.80
2023-04-14T19:20:47.192Z,43.53
2023-04-14T19:23:15.069Z,43.70
2023-04-14T19:25:44.384Z,42.70
2023-04-14T19:28:16.572Z,44.40
2023-04-14T19:30:45.598Z,43.78
2023-04-14T19:33:13.886Z,43.00
2023-04-14T19:35:44.077Z,43.93
2023-04-14T19:38:12.203Z,42.60
2023-04-14T19:40:40.163Z,44.00
2023-04-14T19:43:09.368Z,43.63
2023-04-14T19:45:37.239Z,43.13
2023-04-14T19:48:19.970Z,43.50
2023-04-14T19:50:51.947Z,45.72
2023-04-14T19:53:20.497Z,43.27
2023-04-14T19:55:51.572Z,42.20
2023-04-14T19:58:21.580Z,42.43
2023-04-14T20:00:51.414Z,43.23
2023-04-14T20:03:20.289Z,42.53
2023-04-14T20:05:51.742Z,43.03
2023-04-14T20:08:20.569Z,43.33
2023-04-14T20:10:51.559Z,43.30
2023-04-14T20:13:22.713Z,42.83
2023-04-14T20:15:53.891Z,42.73
2023-04-14T20:18:22.427Z,44.50
2023-04-14T20:20:50.953Z,42.40
2023-04-14T20:23:18.940Z,43.67
2023-04-14T20:25:48.429Z,43.10
2023-04-14T20:28:16.631Z,42.63
2023-04-14T20:30:47.985Z,42.77
2023-04-14T20:33:18.298Z,43.65
2023-04-14T20:35:46.389Z,43.50
2023-04-14T20:38:15.408Z,43.20
2023-04-14T20:40:43.498Z,42.73
2023-04-14T20:43:11.417Z,42.33
2023-04-14T20:45:39.502Z,42.93
2023-04-14T20:48:09.119Z,43.40
2023-04-14T20:50:37.230Z,43.20
2023-04-14T20:53:05.121Z,42.67
2023-04-14T20:55:33.461Z,42.57
2023-04-14T20:58:01.415Z,42.53
2023-04-14T21:00:31.001Z,45.03
2023-04-14T21:03:00.906Z,43.53
2023-04-14T21:05:30.319Z,42.97
2023-04-14T21:07:58.157Z,42.33
2023-04-14T21:10:26.052Z,43.33
2023-04-14T21:15:16.065Z,44.20
2023-04-14T21:15:55.683Z,43.37
2023-04-14T21:18:24.352Z,45.87
2023-04-14T21:20:53.624Z,49.37
2023-04-14T21:23:21.937Z,43.07
2023-04-14T21:25:49.917Z,42.97
2023-04-14T21:28:18.050Z,47.87
2023-04-14T21:30:45.937Z,43.40
2023-04-14T21:33:13.851Z,42.90
2023-04-14T21:35:42.233Z,42.37
2023-04-14T21:38:11.566Z,42.70
2023-04-14T21:40:39.497Z,45.50
2023-04-14T21:43:07.423Z,43.43
2023-04-14T21:45:35.335Z,45.07
2023-04-14T21:48:04.013Z,42.67
2023-04-14T21:50:33.243Z,42.77
2023-04-14T21:53:01.632Z,42.63
2023-04-14T21:55:31.546Z,46.93
2023-04-14T21:58:00.305Z,42.00
2023-04-14T22:00:28.382Z,45.43
2023-04-14T22:02:56.421Z,45.63
2023-04-14T22:05:24.641Z,43.83
2023-04-14T22:07:53.651Z,42.30
2023-04-14T22:10:21.992Z,42.13
2023-04-14T22:12:51.983Z,42.47
2023-04-14T22:15:20.109Z,41.73
2023-04-14T22:17:48.029Z,42.73
2023-04-14T22:20:16.500Z,42.43
2023-04-14T22:22:44.467Z,43.40
2023-04-14T22:25:12.592Z,43.00
2023-04-14T22:27:40.470Z,41.90
2023-04-14T22:30:11.607Z,41.30
2023-04-14T22:32:39.642Z,49.10
2023-04-14T22:35:08.294Z,42.40
2023-04-14T22:37:36.174Z,43.27
2023-04-14T22:40:04.390Z,41.47
2023-04-14T22:42:32.539Z,41.27
2023-04-14T22:45:01.235Z,42.27
2023-04-14T22:47:30.723Z,41.80
2023-04-14T22:49:58.584Z,41.93
2023-04-14T22:52:27.814Z,40.83
2023-04-14T22:54:55.794Z,41.23
2023-04-14T22:57:23.681Z,42.57
2023-04-14T22:59:51.830Z,42.27
2023-04-14T23:02:19.837Z,42.27
2023-04-14T23:04:49.274Z,44.05
2023-04-14T23:07:17.232Z,44.00
2023-04-14T23:09:45.168Z,41.27
2023-04-14T23:12:13.061Z,44.73
2023-04-14T23:14:40.921Z,42.23
2023-04-14T23:17:08.900Z,42.07
2023-04-14T23:19:36.866Z,42.27
2023-04-14T23:22:06.191Z,59.97
2023-04-14T23:24:34.409Z,40.90
2023-04-14T23:27:02.983Z,42.73
2023-04-14T23:29:30.917Z,40.73
2023-04-14T23:31:58.777Z,66.10
2023-04-14T23:34:26.670Z,40.03
2023-04-14T23:36:54.562Z,41.27
2023-04-14T23:39:23.807Z,42.83
2023-04-14T23:41:51.688Z,41.43
2023-04-14T23:44:19.620Z,41.47
2023-04-14T23:46:47.748Z,40.87
2023-04-14T23:49:24.284Z,42.60
2023-04-14T23:52:04.079Z,45.13
2023-04-14T23:54:33.539Z,39.63
2023-04-14T23:57:01.704Z,41.20
2023-04-14T23:59:29.629Z,40.33
